Time;durP1;ratioP1;P1;durP2;ratioP2;P2;SDS_P1;SDS_P2;PMS_P1;PMS_P2;Temp;Humidity;BMP_temperature;BMP_pressure;BME280_temperature;BME280_humidity;BME280_pressure;Samples;Min_cycle;Max_cycle;Signal;HPM_P1;HPM_P2
2021/03/20 00:01:42;;;;;;;142.57;57.67;;;;;;;-3.62;70.31;97379.30;1852039;77;26281;-93
2021/03/20 00:04:11;;;;;;;112.05;51.08;;;;;;;-3.60;70.26;97385.27;1852301;77;25293;-92
2021/03/20 00:06:43;;;;;;;113.50;51.70;;;;;;;-3.63;70.13;97378.45;1852339;77;25656;-88
2021/03/20 00:09:14;;;;;;;112.83;51.37;;;;;;;-3.62;70.16;97378.78;1851990;77;25311;-90
2021/03/20 00:11:45;;;;;;;111.28;48.87;;;;;;;-3.60;70.15;97378.19;1852444;77;26751;-89
2021/03/20 00:14:16;;;;;;;104.95;48.20;;;;;;;-3.61;70.13;97380.46;1852364;77;25659;-90
2021/03/20 00:16:44;;;;;;;206.28;78.20;;;;;;;-3.59;70.21;97383.82;1851414;77;32673;-86
2021/03/20 00:19:12;;;;;;;119.25;50.75;;;;;;;-3.60;70.28;97380.82;1852098;77;25778;-89
2021/03/20 00:21:39;;;;;;;101.60;46.02;;;;;;;-3.56;70.30;97386.70;1852249;77;25504;-92
2021/03/20 00:24:07;;;;;;;96.40;43.08;;;;;;;-3.55;70.22;97384.42;1852347;77;27548;-85
2021/03/20 00:26:36;;;;;;;100.87;46.05;;;;;;;-3.53;70.20;97389.09;1852492;77;26101;-87
2021/03/20 00:29:04;;;;;;;106.07;45.83;;;;;;;-3.53;70.18;97393.89;1852704;77;25745;-84
2021/03/20 00:31:32;;;;;;;102.15;44.60;;;;;;;-3.54;70.19;97392.22;1852048;77;25641;-83
2021/03/20 00:34:00;;;;;;;106.50;45.70;;;;;;;-3.55;70.21;97391.86;1852017;77;25654;-84
2021/03/20 00:36:27;;;;;;;107.52;48.20;;;;;;;-3.55;70.27;97390.54;1852164;77;27475;-83
2021/03/20 00:38:54;;;;;;;123.70;53.25;;;;;;;-3.54;70.38;97388.25;1852078;77;25685;-85
2021/03/20 00:41:22;;;;;;;113.75;49.05;;;;;;;-3.54;70.40;97384.30;1852158;77;25673;-84
2021/03/20 00:43:49;;;;;;;115.08;51.50;;;;;;;-3.55;70.44;97381.30;1852174;77;25747;-85
2021/03/20 00:46:16;;;;;;;123.47;52.93;;;;;;;-3.54;70.49;97380.34;1852196;77;25887;-84
2021/03/20 00:48:43;;;;;;;173.10;67.90;;;;;;;-3.50;70.55;97379.11;1852136;77;28649;-86
2021/03/20 00:51:11;;;;;;;158.72;58.95;;;;;;;-3.46;70.55;97379.70;1852088;77;25788;-92
2021/03/20 00:53:38;;;;;;;137.65;52.88;;;;;;;-3.43;70.53;97378.98;1852182;77;25677;-92
2021/03/20 00:56:06;;;;;;;161.68;55.90;;;;;;;-3.41;70.54;97381.02;1852077;77;25658;-84
2021/03/20 00:58:38;;;;;;;159.95;54.25;;;;;;;-3.40;70.49;97373.46;1852267;77;25751;-87
2021/03/20 01:01:11;;;;;;;131.37;51.02;;;;;;;-3.41;70.46;97375.74;1852369;77;27494;-84
2021/03/20 01:03:39;;;;;;;122.45;49.18;;;;;;;-3.40;70.45;97377.42;1852007;77;25661;-84
2021/03/20 01:06:13;;;;;;;126.80;50.95;;;;;;;-3.38;70.46;97378.11;1852051;77;25696;-87
2021/03/20 01:08:40;;;;;;;101.53;47.40;;;;;;;-3.35;70.51;97378.34;1852042;77;25279;-87
2021/03/20 01:11:10;;;;;;;108.15;46.65;;;;;;;-3.36;70.44;97373.55;1850661;77;25797;-87
2021/03/20 01:13:37;;;;;;;103.95;46.73;;;;;;;-3.41;70.39;97375.74;1843210;77;28434;-85
2021/03/20 01:16:06;;;;;;;98.97;47.58;;;;;;;-3.43;70.40;97380.30;1843261;77;25754;-88
2021/03/20 01:18:34;;;;;;;111.65;51.23;;;;;;;-3.42;70.46;97375.86;1843414;77;25288;-92
2021/03/20 01:21:01;;;;;;;116.70;49.70;;;;;;;-3.44;70.51;97383.06;1843183;77;25804;-85
2021/03/20 01:23:28;;;;;;;107.12;50.67;;;;;;;-3.48;70.62;97374.55;1843103;77;25661;-87
2021/03/20 01:25:55;;;;;;;111.83;50.03;;;;;;;-3.50;70.66;97379.11;1843092;77;28541;-87
2021/03/20 01:28:33;;;;;;;154.68;62.33;;;;;;;-3.49;70.74;97372.88;1842995;77;25705;-84
2021/03/20 01:31:00;;;;;;;167.85;63.87;;;;;;;-3.47;70.85;97377.55;1843192;77;25724;-85
2021/03/20 01:33:29;;;;;;;171.85;63.50;;;;;;;-3.43;70.88;97372.38;1843139;77;26473;-91
2021/03/20 01:35:56;;;;;;;159.70;63.45;;;;;;;-3.38;70.94;97369.38;1843226;77;25826;-86
2021/03/20 01:38:24;;;;;;;153.02;64.82;;;;;;;-3.33;70.97;97381.22;1843145;77;28467;-89
2021/03/20 01:43:37;;;;;;;130.52;59.13;;;;;;;-3.22;71.08;97380.81;1873665;76;34666;-92
2021/03/20 01:46:50;;;;;;;138.62;57.62;;;;;;;-3.27;71.00;97380.73;1852916;77;25881;-85
2021/03/20 01:49:34;;;;;;;172.55;61.77;;;;;;;-3.26;71.06;97385.02;1853025;77;28362;-88
2021/03/20 01:52:21;;;;;;;122.07;53.42;;;;;;;-3.22;71.13;97382.13;1852871;76;25287;-90
2021/03/20 01:55:09;;;;;;;111.55;51.37;;;;;;;-3.22;71.14;97381.66;1852954;77;25283;-84
2021/03/20 01:57:48;;;;;;;117.45;53.73;;;;;;;-3.21;71.16;97383.81;1853133;77;25696;-87
2021/03/20 02:00:21;;;;;;;121.15;54.03;;;;;;;-3.18;71.18;97383.08;1852888;77;25765;-86
2021/03/20 02:02:48;;;;;;;111.57;48.90;;;;;;;-3.16;71.26;97384.28;1852295;77;27493;-86
2021/03/20 02:05:25;;;;;;;96.05;43.87;;;;;;;-3.13;71.33;97393.24;1852846;77;25728;-86
2021/03/20 02:07:55;;;;;;;96.02;43.92;;;;;;;-3.11;71.27;97387.36;1852815;76;25792;-86
2021/03/20 02:10:25;;;;;;;87.27;42.30;;;;;;;-3.11;71.28;97389.52;1852891;77;26030;-85
2021/03/20 02:12:56;;;;;;;125.18;51.42;;;;;;;-3.09;71.32;97386.75;1852924;77;25850;-86
2021/03/20 02:15:38;;;;;;;113.20;50.55;;;;;;;-3.05;71.28;97384.23;1852145;77;27484;-90
2021/03/20 02:18:43;;;;;;;78.75;37.48;;;;;;;-3.05;71.30;97382.91;1852773;77;25703;-89
2021/03/20 02:21:27;;;;;;;107.97;49.18;;;;;;;-3.03;71.36;97379.66;1852903;76;25755;-86
2021/03/20 02:24:02;;;;;;;107.75;48.68;;;;;;;-3.00;71.42;97385.98;1847342;77;25731;-85
2021/03/20 02:27:16;;;;;;;92.70;44.25;;;;;;;-2.99;71.44;97383.22;1851198;77;26174;-89
2021/03/20 02:30:06;;;;;;;99.10;44.55;;;;;;;-3.00;71.42;97388.14;1808839;77;28466;-87
2021/03/20 02:32:44;;;;;;;86.20;43.60;;;;;;;-3.01;71.43;97388.27;1852788;77;25841;-88
2021/03/20 02:35:36;;;;;;;93.47;45.67;;;;;;;-2.98;71.51;97393.30;1849705;77;25728;-85
2021/03/20 02:38:25;;;;;;;92.25;43.55;;;;;;;-2.95;71.49;97391.73;1852693;77;26493;-84
2021/03/20 02:41:23;;;;;;;82.27;40.17;;;;;;;-2.92;71.60;97389.69;1819436;78;26382;-86
2021/03/20 02:44:23;;;;;;;74.53;37.30;;;;;;;-2.88;71.59;97396.00;1811053;78;28543;-86
2021/03/20 02:47:04;;;;;;;72.82;37.40;;;;;;;-2.86;71.62;97399.36;1810642;79;25618;-86
2021/03/20 02:49:49;;;;;;;82.53;38.92;;;;;;;-2.79;71.55;97399.22;1810696;79;25693;-89
2021/03/20 02:52:36;;;;;;;75.17;34.60;;;;;;;-2.78;71.41;97399.58;1810827;79;25722;-86
2021/03/20 02:55:27;;;;;;;75.25;33.90;;;;;;;-2.79;71.38;97397.42;1803866;78;25773;-87
2021/03/20 02:58:11;;;;;;;77.08;35.52;;;;;;;-2.82;71.42;97402.95;1810156;79;27479;-85
2021/03/20 03:00:56;;;;;;;72.70;35.17;;;;;;;-2.81;71.37;97399.34;1809871;79;25977;-85
2021/03/20 03:03:28;;;;;;;75.80;37.60;;;;;;;-2.81;71.32;97396.70;1776858;79;25674;-85
2021/03/20 03:06:01;;;;;;;79.55;38.13;;;;;;;-2.80;71.34;97401.02;1767489;79;25930;-86
2021/03/20 03:08:39;;;;;;;101.53;43.08;;;;;;;-2.78;71.44;97399.09;1810151;79;25704;-85
2021/03/20 03:11:40;;;;;;;75.03;35.28;;;;;;;-2.75;71.49;97405.42;1809286;79;27493;-90
2021/03/20 03:14:22;;;;;;;83.75;36.65;;;;;;;-2.74;71.49;97407.58;1810144;78;26413;-85
2021/03/20 03:16:57;;;;;;;81.67;38.90;;;;;;;-2.72;71.50;97407.81;1810090;78;25885;-87
2021/03/20 03:19:45;;;;;;;74.15;37.60;;;;;;;-2.71;71.58;97412.13;1809991;79;25752;-85
2021/03/20 03:22:17;;;;;;;88.87;37.67;;;;;;;-2.72;71.51;97405.17;1797723;79;25819;-90
2021/03/20 03:24:46;;;;;;;88.17;39.18;;;;;;;-2.75;71.55;97414.67;1810258;79;28405;-85
2021/03/20 03:27:16;;;;;;;80.75;39.20;;;;;;;-2.73;71.56;97421.98;1810058;79;25733;-88
2021/03/20 03:29:43;;;;;;;81.45;37.90;;;;;;;-2.69;71.58;97422.09;1810178;79;25673;-86
2021/03/20 03:32:34;;;;;;;73.67;39.13;;;;;;;-2.67;71.59;97426.77;1810086;79;25336;-86
2021/03/20 03:35:32;;;;;;;82.55;39.53;;;;;;;-2.63;71.57;97429.97;1810192;79;25738;-90
2021/03/20 03:38:13;;;;;;;84.07;41.90;;;;;;;-2.63;71.59;97433.45;1809958;78;27512;-91
2021/03/20 03:41:12;;;;;;;88.72;40.83;;;;;;;-2.63;71.71;97433.94;1810270;79;25265;-90
2021/03/20 03:43:39;;;;;;;96.90;47.17;;;;;;;-2.62;71.91;97439.58;1810034;78;26168;-87
2021/03/20 03:46:09;;;;;;;94.10;47.17;;;;;;;-2.63;71.94;97433.94;1810042;79;25421;-90
2021/03/20 03:48:36;;;;;;;90.97;41.88;;;;;;;-2.59;72.03;97444.13;1810150;79;25337;-86
2021/03/20 03:51:17;;;;;;;87.70;43.80;;;;;;;-2.56;72.09;97440.41;1810113;79;27494;-93
2021/03/20 03:53:46;;;;;;;83.95;43.45;;;;;;;-2.49;72.11;97442.03;1810109;78;25811;-88
2021/03/20 03:56:41;;;;;;;85.20;43.75;;;;;;;-2.44;72.13;97450.42;1810263;78;25713;-91
2021/03/20 03:59:43;;;;;;;86.55;42.93;;;;;;;-2.42;72.13;97448.01;1794978;79;25378;-87
2021/03/20 04:02:48;;;;;;;92.47;44.40;;;;;;;-2.39;72.12;97450.85;1810150;79;25807;-86
2021/03/20 04:05:35;;;;;;;103.45;46.08;;;;;;;-2.40;72.14;97453.98;1810133;79;27529;-92
2021/03/20 04:08:37;;;;;;;110.88;50.30;;;;;;;-2.46;72.17;97457.64;1808679;79;26230;-94
2021/03/20 04:11:15;;;;;;;95.05;44.42;;;;;;;-2.49;72.27;97460.53;1810211;78;25736;-91
2021/03/20 04:14:06;;;;;;;96.87;45.48;;;;;;;-2.52;72.31;97458.14;1809220;79;25818;-88
2021/03/20 04:16:45;;;;;;;80.15;42.10;;;;;;;-2.48;72.36;97464.85;1776654;79;25889;-91
2021/03/20 04:19:30;;;;;;;86.72;44.88;;;;;;;-2.44;72.44;97470.25;1810166;79;27531;-92
2021/03/20 04:22:05;;;;;;;93.03;43.52;;;;;;;-2.43;72.46;97470.61;1809875;79;25368;-90
2021/03/20 04:24:52;;;;;;;89.95;44.00;;;;;;;-2.48;72.49;97464.85;1810110;79;25772;-90
2021/03/20 04:27:28;;;;;;;81.20;38.25;;;;;;;-2.50;72.55;97463.66;1810213;78;25943;-90
2021/03/20 04:30:19;;;;;;;70.03;34.20;;;;;;;-2.49;72.59;97468.46;1808467;79;25920;-87
2021/03/20 04:33:10;;;;;;;43.70;23.83;;;;;;;-2.46;72.55;97473.50;1809649;79;28550;-88
2021/03/20 04:35:45;;;;;;;39.90;22.60;;;;;;;-2.51;72.41;97471.23;1810166;79;25803;-90
2021/03/20 04:38:13;;;;;;;39.25;20.97;;;;;;;-2.52;72.33;97477.48;1810037;79;25730;-92
2021/03/20 04:40:52;;;;;;;36.68;21.20;;;;;;;-2.54;72.35;97477.60;1810112;78;25756;-92
2021/03/20 04:43:23;;;;;;;35.10;21.25;;;;;;;-2.50;72.33;97480.00;1809894;78;25327;-89
2021/03/20 04:46:14;;;;;;;35.77;20.07;;;;;;;-2.47;72.43;97482.39;1814163;79;28936;-90
2021/03/20 04:48:46;;;;;;;42.73;23.27;;;;;;;-2.47;72.43;97482.39;1813797;79;25698;-87
2021/03/20 04:51:26;;;;;;;;;;;;;;;-2.44;72.50;97484.78;1800525;79;26436;-91
2021/03/20 04:54:09;;;;;;;34.88;19.98;;;;;;;-2.40;72.46;97494.95;1813343;78;25766;-88
2021/03/20 04:56:45;;;;;;;35.58;20.23;;;;;;;-2.38;72.38;97493.03;1813971;79;25296;-88
2021/03/20 04:59:23;;;;;;;37.35;21.93;;;;;;;-2.41;72.40;97493.75;1812930;79;27503;-86
2021/03/20 05:01:54;;;;;;;32.60;20.55;;;;;;;-2.45;72.48;97497.64;1811844;79;25338;-90
2021/03/20 05:04:30;;;;;;;31.85;18.85;;;;;;;-2.50;72.48;97508.59;1813562;78;25697;-91
2021/03/20 05:07:00;;;;;;;26.65;16.32;;;;;;;-2.54;72.42;97504.03;1813661;78;25717;-86
2021/03/20 05:09:30;;;;;;;24.37;17.07;;;;;;;-2.60;72.12;97511.16;1813650;79;25798;-85
2021/03/20 05:12:11;;;;;;;40.10;22.37;;;;;;;-2.62;72.11;97514.41;1813910;78;27521;-87
2021/03/20 05:14:43;;;;;;;36.50;21.07;;;;;;;-2.58;72.37;97513.69;1813839;78;25848;-85
2021/03/20 05:17:15;;;;;;;32.38;18.90;;;;;;;-2.56;72.44;97515.72;1813643;79;26120;-87
2021/03/20 05:19:43;;;;;;;30.12;18.40;;;;;;;-2.56;72.29;97523.66;1813811;79;26162;-86
2021/03/20 05:22:24;;;;;;;26.05;17.82;;;;;;;-2.52;72.26;97534.78;1813696;79;25822;-86
2021/03/20 05:24:54;;;;;;;22.60;15.05;;;;;;;-2.54;72.26;97531.78;1812487;79;31951;-84
2021/03/20 05:27:26;;;;;;;30.85;15.00;;;;;;;-2.51;72.32;97533.34;1813551;79;25790;-94
2021/03/20 05:29:54;;;;;;;23.15;14.65;;;;;;;-2.48;72.33;97541.51;1813797;78;25650;-85
2021/03/20 05:32:30;;;;;;;24.55;15.25;;;;;;;-2.48;72.36;97542.83;1813680;79;25889;-86
2021/03/20 05:35:00;;;;;;;22.05;13.93;;;;;;;-2.48;72.31;97544.98;1813853;79;25735;-86
2021/03/20 05:37:35;;;;;;;19.73;13.48;;;;;;;-2.49;72.17;97550.40;1813826;79;27537;-86
2021/03/20 05:40:25;;;;;;;26.62;15.18;;;;;;;-2.48;72.17;97551.59;1813840;79;26096;-87
2021/03/20 05:43:26;;;;;;;20.55;13.85;;;;;;;-2.49;72.08;97559.17;1813106;79;25765;-84
2021/03/20 05:46:33;;;;;;;20.48;13.80;;;;;;;-2.58;71.84;97563.42;1810000;79;25737;-85
2021/03/20 05:49:14;;;;;;;22.85;13.62;;;;;;;-2.61;72.01;97568.95;1809928;78;25869;-87
2021/03/20 05:52:22;;;;;;;19.23;12.70;;;;;;;-2.56;72.08;97576.52;1809827;79;28501;-92
2021/03/20 05:55:10;;;;;;;20.65;12.50;;;;;;;-2.55;71.99;97580.36;1809921;79;25796;-92
2021/03/20 05:58:20;;;;;;;20.40;13.83;;;;;;;-2.60;71.81;97583.84;1810060;79;25753;-89
2021/03/20 06:01:11;;;;;;;21.70;12.37;;;;;;;-2.62;71.83;97591.05;1810122;79;26139;-91
2021/03/20 06:04:05;;;;;;;15.95;11.05;;;;;;;-2.66;71.81;97597.58;1809976;79;25750;-85
2021/03/20 06:07:24;;;;;;;21.42;11.95;;;;;;;-2.71;71.81;97597.58;1809974;79;27478;-85
2021/03/20 06:10:18;;;;;;;17.40;9.63;;;;;;;-2.73;71.91;97601.66;1810056;79;25658;-88
2021/03/20 06:13:17;;;;;;;18.42;10.30;;;;;;;-2.74;71.84;97605.74;1807596;79;25731;-84
2021/03/20 06:16:07;;;;;;;18.10;9.68;;;;;;;-2.85;71.85;97613.21;1809931;79;25721;-86
2021/03/20 06:19:28;;;;;;;14.47;8.23;;;;;;;-2.88;71.85;97621.38;1810108;79;26288;-89
2021/03/20 06:22:24;;;;;;;19.75;8.93;;;;;;;-2.93;71.80;97619.60;1738955;81;27486;-91
2021/03/20 06:25:31;;;;;;;17.57;8.60;;;;;;;-3.01;71.77;97622.84;1765019;80;25728;-89
2021/03/20 06:28:00;;;;;;;16.45;8.55;;;;;;;-3.01;71.90;97632.08;1810015;79;25340;-85
2021/03/20 06:30:48;;;;;;;17.30;8.80;;;;;;;-2.99;71.92;97624.88;1810203;79;26554;-87
2021/03/20 06:33:28;;;;;;;16.97;8.25;;;;;;;-3.00;71.85;97639.05;1810345;79;25343;-86
2021/03/20 06:36:19;;;;;;;14.25;7.97;;;;;;;-3.02;71.64;97638.83;1810247;79;27558;-86
2021/03/20 06:39:06;;;;;;;18.17;7.70;;;;;;;-3.08;71.59;97642.78;1810244;79;25849;-90
2021/03/20 06:42:02;;;;;;;14.05;7.90;;;;;;;-3.13;71.46;97653.33;1749378;81;26304;-92
2021/03/20 06:47:29;;;;;;;17.95;8.15;;;;;;;-3.34;71.84;97650.58;1873835;76;35371;-92
2021/03/20 06:50:02;;;;;;;15.20;7.95;;;;;;;-3.34;71.90;97661.14;1853165;77;25626;-87
2021/03/20 06:52:32;;;;;;;15.25;7.78;;;;;;;-3.38;71.60;97660.53;1853646;77;27574;-91
2021/03/20 06:55:11;;;;;;;22.25;8.98;;;;;;;-3.43;71.57;97662.70;1853497;77;25730;-87
2021/03/20 06:57:39;;;;;;;18.42;10.18;;;;;;;-3.51;71.72;97666.42;1853434;77;25769;-93
2021/03/20 07:00:26;;;;;;;17.48;8.70;;;;;;;-3.50;71.57;97674.67;1853697;77;25732;-92
2021/03/20 07:03:49;;;;;;;15.53;9.28;;;;;;;-3.48;71.73;97671.91;1851646;77;25259;-93
2021/03/20 07:06:33;;;;;;;15.55;9.03;;;;;;;-3.53;71.67;97673.61;1853679;77;27476;-90
2021/03/20 07:09:05;;;;;;;14.93;8.35;;;;;;;-3.48;71.72;97676.72;1781116;80;25417;-90
2021/03/20 07:11:40;;;;;;;11.07;6.93;;;;;;;-3.49;71.70;97680.31;1853356;76;25769;-93
2021/03/20 07:14:12;;;;;;;15.53;8.38;;;;;;;-3.43;71.57;97677.22;1853335;76;25855;-93
2021/03/20 07:16:55;;;;;;;;;;;;;;;-3.50;71.33;97683.91;1855918;77;25741;-92
2021/03/20 07:19:23;;;;;;;14.58;8.58;;;;;;;-3.59;71.34;97681.98;1852313;76;27699;-91
2021/03/20 07:22:02;;;;;;;13.05;8.20;;;;;;;-3.60;71.53;97692.17;1852937;77;26205;-92
2021/03/20 07:24:40;;;;;;;12.95;7.67;;;;;;;-3.52;71.62;97695.08;1848976;77;25733;-91
2021/03/20 07:27:20;;;;;;;25.80;12.60;;;;;;;-3.43;71.69;97696.17;1852825;77;26061;-92
2021/03/20 07:29:56;;;;;;;18.30;9.03;;;;;;;-3.43;71.38;97700.97;1852836;77;25740;-94
2021/03/20 07:32:34;;;;;;;17.85;9.13;;;;;;;-3.38;71.46;97701.44;1852973;77;28394;-92
2021/03/20 07:35:25;;;;;;;18.27;8.38;;;;;;;-3.22;71.41;97706.86;1852895;77;26104;-92
2021/03/20 07:37:53;;;;;;;16.32;8.80;;;;;;;-3.18;71.12;97708.32;1852965;76;25291;-92
2021/03/20 07:40:30;;;;;;;18.27;8.98;;;;;;;-3.14;70.97;97709.77;1852810;77;25721;-92
2021/03/20 07:43:20;;;;;;;20.90;10.15;;;;;;;-3.09;71.02;97710.23;1852832;77;25335;-93
2021/03/20 07:45:50;;;;;;;20.27;10.88;;;;;;;-2.97;71.05;97718.53;1852810;77;27482;-89
2021/03/20 07:48:28;;;;;;;21.62;11.12;;;;;;;-2.95;70.99;97727.17;1852708;77;25674;-91
2021/03/20 07:51:16;;;;;;;19.05;9.83;;;;;;;-2.94;70.97;97727.54;1853009;77;25330;-93
2021/03/20 07:53:50;;;;;;;20.70;9.83;;;;;;;-2.91;70.87;97733.91;1853009;77;25301;-92
2021/03/20 07:56:37;;;;;;;19.82;9.93;;;;;;;-2.82;70.83;97731.86;1853084;77;25727;-92
2021/03/20 08:02:04;;;;;;;22.20;10.53;;;;;;;-2.70;70.44;97740.62;1873827;75;34734;-93
2021/03/20 08:05:08;;;;;;;19.02;9.40;;;;;;;-2.74;70.38;97738.70;1853139;77;25788;-94
2021/03/20 08:07:49;;;;;;;20.85;10.03;;;;;;;-2.71;70.27;97738.47;1853027;76;27477;-90
2021/03/20 08:10:35;;;;;;;24.10;9.98;;;;;;;-2.74;70.08;97740.50;1852513;77;25887;-91
2021/03/20 08:13:16;;;;;;;18.20;9.23;;;;;;;-2.74;69.90;97743.98;1852854;77;25715;-90
2021/03/20 08:15:55;;;;;;;17.65;8.20;;;;;;;-2.69;69.70;97745.80;1851945;77;25791;-92
2021/03/20 08:18:34;;;;;;;15.93;8.88;;;;;;;-2.60;69.40;97747.70;1852862;77;25505;-91
2021/03/20 08:21:23;;;;;;;16.80;8.35;;;;;;;-2.60;69.25;97749.02;1850290;77;27690;-89
2021/03/20 08:24:20;;;;;;;16.02;8.10;;;;;;;-2.51;69.11;97751.41;1852808;76;25695;-89
2021/03/20 08:27:10;;;;;;;14.30;7.83;;;;;;;-2.41;68.96;97751.51;1853001;77;26199;-91
2021/03/20 08:30:24;;;;;;;21.27;7.92;;;;;;;-2.37;68.64;97746.34;1852751;76;25891;-93
2021/03/20 08:33:29;;;;;;;20.70;8.40;;;;;;;-2.30;68.47;97756.81;1852885;77;26122;-89
2021/03/20 08:36:35;;;;;;;15.40;7.95;;;;;;;-2.28;68.21;97752.21;1852824;77;27607;-90
2021/03/20 08:39:45;;;;;;;17.12;8.20;;;;;;;-2.25;67.95;97757.27;1852708;76;25820;-91
2021/03/20 08:43:11;;;;;;;15.20;8.40;;;;;;;-2.18;67.70;97759.79;1780621;80;25415;-92
2021/03/20 08:45:55;;;;;;;14.60;7.42;;;;;;;-2.14;67.53;97765.17;1745822;82;26128;-90
2021/03/20 08:48:36;;;;;;;14.85;7.42;;;;;;;-2.07;67.26;97763.73;1806365;79;25877;-95
2021/03/20 08:51:44;;;;;;;18.42;5.47;;;;;;;-1.82;67.07;97768.70;1781074;79;27508;-91
2021/03/20 08:54:47;;;;;;;15.53;7.55;;;;;;;-1.49;66.65;97769.53;1815028;79;25828;-89
2021/03/20 08:58:00;;;;;;;16.52;7.90;;;;;;;-1.06;66.42;97761.92;1815087;79;25772;-91
2021/03/20 09:00:52;;;;;;;15.83;6.42;;;;;;;-0.70;65.99;97768.53;1815268;78;25771;-89
2021/03/20 09:03:25;;;;;;;15.08;5.70;;;;;;;-0.54;65.30;97773.72;1816159;78;25646;-90
2021/03/20 09:08:45;;;;;;;13.32;5.58;;;;;;;-0.36;64.29;97766.79;1873394;76;35214;-87
2021/03/20 09:11:46;;;;;;;9.13;5.20;;;;;;;-0.68;64.09;97775.39;1819674;76;25732;-86
2021/03/20 09:14:34;;;;;;;9.63;4.70;;;;;;;-0.77;64.29;97783.66;1852905;77;26685;-89
2021/03/20 09:17:10;;;;;;;12.45;5.40;;;;;;;-0.77;63.44;97779.69;1852056;77;25727;-89
2021/03/20 09:19:42;;;;;;;11.40;5.70;;;;;;;-0.85;63.35;97782.64;1852762;77;25779;-88
2021/03/20 09:22:15;;;;;;;10.13;5.15;;;;;;;-0.94;62.86;97778.11;1852375;77;25816;-91
2021/03/20 09:25:02;;;;;;;9.60;4.75;;;;;;;-0.71;62.93;97778.30;1853093;77;25821;-90
2021/03/20 09:28:04;;;;;;;12.23;5.08;;;;;;;-0.46;62.38;97787.14;1853053;77;28454;-88
2021/03/20 09:30:54;;;;;;;14.18;5.92;;;;;;;-0.26;62.57;97787.23;1853133;77;26125;-92
2021/03/20 09:33:31;;;;;;;12.23;5.30;;;;;;;0.10;62.00;97783.13;1853695;77;25271;-92
2021/03/20 09:36:10;;;;;;;12.07;5.45;;;;;;;0.36;61.46;97786.42;1853158;77;25777;-91
2021/03/20 09:38:47;;;;;;;12.37;5.08;;;;;;;0.40;60.97;97787.00;1820128;77;25813;-89
2021/03/20 09:41:20;;;;;;;10.63;5.80;;;;;;;0.42;60.49;97786.86;1853096;76;27492;-94
2021/03/20 09:44:05;;;;;;;9.95;4.70;;;;;;;0.21;59.95;97789.16;1852938;77;26015;-91
2021/03/20 09:46:46;;;;;;;13.08;5.33;;;;;;;0.38;59.88;97788.11;1852897;76;25900;-93
2021/03/20 09:49:21;;;;;;;14.13;6.87;;;;;;;0.48;59.62;97792.96;1852997;77;25816;-92
2021/03/20 09:51:58;;;;;;;11.45;6.12;;;;;;;0.59;59.31;97792.83;1853309;77;25652;-92
2021/03/20 09:54:39;;;;;;;14.45;6.42;;;;;;;0.71;59.33;97791.70;1853302;76;27556;-88
2021/03/20 09:57:22;;;;;;;15.58;6.53;;;;;;;0.98;59.39;97789.14;1851815;77;26124;-92
2021/03/20 09:59:47;;;;;;;13.03;6.62;;;;;;;0.94;59.39;97794.41;1851571;76;25811;-92
2021/03/20 10:02:27;;;;;;;14.65;6.58;;;;;;;0.97;58.74;97795.43;1853023;77;25708;-89
2021/03/20 10:05:03;;;;;;;20.57;7.58;;;;;;;0.90;58.59;97801.47;1852904;77;25666;-91
2021/03/20 10:07:38;;;;;;;14.65;7.22;;;;;;;1.19;58.45;97801.44;1845547;77;27725;-91
2021/03/20 10:10:17;;;;;;;12.75;7.00;;;;;;;1.28;58.22;97804.07;1844086;77;26018;-93
2021/03/20 10:12:53;;;;;;;15.95;6.00;;;;;;;1.38;58.13;97802.70;1841563;77;25779;-94
2021/03/20 10:15:31;;;;;;;13.55;6.15;;;;;;;1.09;57.83;97802.27;1843857;77;25327;-90
2021/03/20 10:18:17;;;;;;;12.93;5.67;;;;;;;0.87;57.48;97803.91;1844020;77;25331;-90
2021/03/20 10:20:54;;;;;;;11.35;5.87;;;;;;;1.10;57.41;97799.13;1843377;77;27492;-95
2021/03/20 10:23:44;;;;;;;12.35;5.65;;;;;;;1.46;57.16;97797.48;1843379;77;25361;-85
2021/03/20 10:26:32;;;;;;;13.35;5.87;;;;;;;1.74;56.96;97795.22;1843322;77;25422;-86
2021/03/20 10:29:05;;;;;;;10.45;5.50;;;;;;;2.25;56.20;97788.52;1842948;77;26042;-86
2021/03/20 10:31:38;;;;;;;;;;;;;;;2.81;55.94;97788.71;1845872;77;25338;-83
2021/03/20 10:34:17;;;;;;;10.30;4.62;;;;;;;3.50;54.66;97782.04;1842747;77;27568;-86
2021/03/20 10:36:52;;;;;;;11.88;5.12;;;;;;;3.88;55.02;97782.08;1842957;77;25791;-84
2021/03/20 10:42:26;;;;;;;13.98;6.60;;;;;;;4.59;53.39;97778.11;1886851;76;25644;-86
2021/03/20 10:45:02;;;;;;;14.18;6.12;;;;;;;4.80;52.85;97782.50;1857988;77;25919;-86
2021/03/20 10:47:34;;;;;;;9.65;6.08;;;;;;;4.50;52.95;97778.59;1857643;77;27500;-85
2021/03/20 10:50:31;;;;;;;7.83;4.25;;;;;;;4.03;53.16;97786.81;1857797;77;34936;-88
2021/03/20 10:53:04;;;;;;;10.13;4.40;;;;;;;3.82;52.00;97786.73;1857174;77;25745;-85
2021/03/20 10:58:27;;;;;;;9.85;4.72;;;;;;;4.60;50.79;97773.09;1849484;76;25629;-87
2021/03/20 11:00:56;;;;;;;8.63;4.53;;;;;;;4.94;51.56;97771.64;1820146;78;25792;-85
2021/03/20 11:03:43;;;;;;;11.03;6.03;;;;;;;5.51;51.20;97772.92;1820111;78;26679;-85
2021/03/20 11:06:20;;;;;;;11.05;5.22;;;;;;;5.66;48.46;97776.58;1820132;78;25682;-87
2021/03/20 11:08:54;;;;;;;10.75;5.70;;;;;;;5.31;48.09;97770.59;1820217;78;25774;-88
2021/03/20 11:11:32;;;;;;;10.45;5.70;;;;;;;5.48;49.35;97773.25;1803261;78;25767;-85
2021/03/20 11:14:13;;;;;;;12.98;6.87;;;;;;;5.77;49.17;97773.53;1820138;78;25791;-86
2021/03/20 11:16:55;;;;;;;12.25;6.08;;;;;;;6.04;49.63;97768.24;1820228;78;28468;-89
2021/03/20 11:19:31;;;;;;;11.63;5.60;;;;;;;5.79;48.72;97775.03;1820526;78;25784;-88
2021/03/20 11:22:34;;;;;;;9.25;5.50;;;;;;;5.39;48.49;97781.31;1820407;78;25753;-87
2021/03/20 11:25:10;;;;;;;11.05;6.47;;;;;;;5.73;48.66;97773.53;1820155;78;26105;-86
2021/03/20 11:27:40;;;;;;;10.82;6.42;;;;;;;6.14;49.03;97773.75;1820266;77;25928;-90
2021/03/20 11:30:21;;;;;;;14.55;7.40;;;;;;;6.37;44.51;97770.28;1820242;78;28438;-88
2021/03/20 11:32:50;;;;;;;12.95;7.83;;;;;;;5.65;46.57;97766.86;1820314;78;25746;-86
2021/03/20 11:35:38;;;;;;;14.75;6.55;;;;;;;5.41;47.15;97767.76;1820289;78;25348;-89
2021/03/20 11:38:06;;;;;;;17.05;8.93;;;;;;;5.35;47.03;97770.59;1788772;78;25778;-93
2021/03/20 11:40:41;;;;;;;12.43;6.70;;;;;;;5.10;46.52;97763.59;1820291;78;25854;-90
2021/03/20 11:43:25;;;;;;;16.30;8.60;;;;;;;4.91;46.32;97766.63;1820373;78;28405;-89
2021/03/20 11:46:10;;;;;;;12.65;6.30;;;;;;;4.57;46.24;97765.42;1820151;78;25793;-94
2021/03/20 11:49:06;;;;;;;8.30;5.40;;;;;;;4.12;46.47;97763.13;1820198;78;25792;-91
2021/03/20 11:51:43;;;;;;;10.85;5.80;;;;;;;4.06;46.05;97758.45;1820189;78;25685;-90
2021/03/20 11:54:25;;;;;;;12.95;6.62;;;;;;;3.87;45.89;97758.20;1820111;78;25283;-91
2021/03/20 11:57:00;;;;;;;13.03;5.85;;;;;;;3.62;45.70;97754.61;1819836;78;27772;-89
2021/03/20 11:59:44;;;;;;;15.35;7.37;;;;;;;3.65;45.85;97754.77;1823202;78;25577;-89
2021/03/20 12:02:33;;;;;;;10.65;5.25;;;;;;;3.44;45.68;97756.00;1823355;78;25553;-86
2021/03/20 12:05:21;;;;;;;13.30;6.55;;;;;;;3.48;45.55;97750.70;1823216;77;25760;-85
2021/03/20 12:07:48;;;;;;;13.10;6.78;;;;;;;3.51;45.72;97756.19;1822698;78;25989;-88
2021/03/20 12:10:26;;;;;;;13.55;7.42;;;;;;;3.61;45.82;97751.59;1822641;78;27734;-88
2021/03/20 12:12:56;;;;;;;12.98;6.62;;;;;;;3.64;45.88;97751.25;1822691;78;25864;-90
2021/03/20 12:15:35;;;;;;;15.63;7.85;;;;;;;3.61;46.21;97749.77;1822676;78;25785;-86
2021/03/20 12:18:12;;;;;;;14.13;6.67;;;;;;;3.64;46.13;97751.25;1821837;78;25824;-89
2021/03/20 12:20:43;;;;;;;13.35;5.70;;;;;;;3.46;46.21;97749.17;1822613;78;25711;-90
2021/03/20 12:23:24;;;;;;;12.63;6.10;;;;;;;3.41;46.40;97740.79;1822787;78;28376;-90
2021/03/20 12:25:55;;;;;;;13.83;6.65;;;;;;;3.33;46.32;97746.93;1822660;78;25754;-89
2021/03/20 12:28:42;;;;;;;14.70;6.97;;;;;;;3.20;46.19;97748.69;1822846;78;25746;-85
2021/03/20 12:31:18;;;;;;;11.45;6.78;;;;;;;3.21;46.35;97741.02;1822641;78;25284;-88
2021/03/20 12:33:57;;;;;;;15.55;6.83;;;;;;;3.20;46.28;97739.34;1822771;78;25631;-88
2021/03/20 12:36:47;;;;;;;13.08;5.97;;;;;;;3.20;46.26;97746.02;1822592;78;27504;-87
2021/03/20 12:39:20;;;;;;;15.93;8.20;;;;;;;3.12;46.60;97733.97;1822561;77;26012;-88
2021/03/20 12:41:54;;;;;;;15.15;8.40;;;;;;;2.48;46.38;97736.45;1822723;78;25785;-89